Aérodrome :
LOGIN :

S'inscrire | Disclaimer

   EN    FR    IT 

 










Légende :    VFR   VFR Marginal   IFR   IFR Intensif   IFR Très Intensif
Visi : 
Plafond : 
>= 8 km
>= 3000ft
5 à 8 km
1000 à 3000 ft
1500m à 5 km
500 à 1000 ft
800 à 1500m
200 à 500 ft
< 800m
< 200 ft
Symboles :   Orages  Brouillard  Fortes neiges  Fortes précipitations  Vent > 20 kt
SIGMETs :   Divers  Orages  Givrage  Turbulence  Onde Orograph.  Cendres Volcan.







- Altitude de l'aérodrome : 0 ft


ENQC - Troll C Platform

DERNIER METAR :
  • 181820Z AUTO 19020KT 9999NDV -SHRA SCT006/// BKN015/// 07/05 Q1019 W///S4

METARs EXPIRÉS :
  • 181750Z AUTO 17018KT 9999NDV OVC010/// 06/05 Q1019 W///S4
  • 181720Z AUTO 18018KT 9999NDV OVC027/// 06/04 Q1019 W///S4
  • 181650Z AUTO 20018KT 9999NDV -SHRA SCT013/// OVC046/// 06/04 Q1019 W///S4
  • 181620Z AUTO 18016KT 9999NDV -RA BKN020/// BKN037/// BKN069/// 06/04 Q1019 W///S4
  • 181550Z AUTO 19013KT 9000NDV -RA FEW021/// OVC037/// 06/04 Q1019 W///S4

TAF N/A
Pas de NOTAMs connus pour ce terrain.
1 SIGMET publié pour la FIR Norway (ENOR) :
 
Givrage fort
ENSV SIGMET B02 VALID 181745/182130 ENVV
ENOR NORWAY FIR OCNL SEV ICE FCST WI N5800 E00730 - N5840 E00500 - N6200 E00500 - N6200 E00730 - N5800 E00730 FL040/100 STNR NC=



MET'MAP, la Météo Aéronautique d'un coup d'oeil ! - Copyright ORBIFLY Décembre 2007 - Disclaimer

ORBIFLY MET'MAP TEAM :

Programmation & Développement : Alexandra Zaïnal
Conception & Développement : Baudouin d'Aumeries
Co-Programmation & Développement : Marc-Olivier Méhu
Soutien technique & logistique : Manuel Goepfert

Contact : metmap@orbifly.com




SOURCES & CREDITS :

   NOAA